Time;durP1;ratioP1;P1;durP2;ratioP2;P2;SDS_P1;SDS_P2;PMS_P1;PMS_P2;Temp;Humidity;BMP_temperature;BMP_pressure;BME280_temperature;BME280_humidity;BME280_pressure;Samples;Min_cycle;Max_cycle;Signal;HPM_P1;HPM_P2
2021/09/29 00:00:18;;;;;;;3.67;1.55;;;;;;;17.02;43.02;101138.88;4879528;29;20112;-75
2021/09/29 00:02:44;;;;;;;4.57;2.47;;;;;;;17.24;42.54;101145.06;4879614;29;20384;-75
2021/09/29 00:05:09;;;;;;;4.85;2.13;;;;;;;17.19;42.59;101148.84;4880818;29;20039;-75
2021/09/29 00:07:35;;;;;;;5.22;2.95;;;;;;;17.08;42.93;101156.00;4880764;29;20025;-75
2021/09/29 00:10:01;;;;;;;3.05;1.42;;;;;;;17.19;42.50;101151.59;4880650;29;20056;-76
2021/09/29 00:12:26;;;;;;;4.95;1.70;;;;;;;17.12;42.73;101154.16;4880622;29;20104;-75
2021/09/29 00:14:52;;;;;;;4.07;1.88;;;;;;;17.09;42.79;101161.19;4880503;29;20104;-75
2021/09/29 00:17:17;;;;;;;8.02;1.98;;;;;;;17.15;42.44;101157.03;4880531;29;20036;-79
2021/09/29 00:19:43;;;;;;;5.55;2.20;;;;;;;17.22;42.33;101150.09;4880464;29;20550;-75
2021/09/29 00:22:10;;;;;;;3.97;1.90;;;;;;;17.06;42.67;101153.56;4880530;29;20112;-76
2021/09/29 00:24:36;;;;;;;5.90;1.83;;;;;;;16.73;43.65;101163.94;4880556;29;20044;-78
2021/09/29 00:27:02;;;;;;;3.15;1.70;;;;;;;16.78;43.39;101177.53;4880396;29;20033;-76
2021/09/29 00:29:28;;;;;;;5.18;1.95;;;;;;;16.78;43.45;101177.53;4880425;29;20499;-78
2021/09/29 00:31:54;;;;;;;3.33;1.50;;;;;;;16.85;43.27;101169.44;4880317;29;20025;-76
2021/09/29 00:34:33;;;;;;;3.88;1.70;;;;;;;16.88;43.09;101177.06;4880198;29;20029;-76
2021/09/29 00:36:59;;;;;;;4.63;1.88;;;;;;;16.88;43.11;101180.63;4879702;29;20029;-78
2021/09/29 00:39:25;;;;;;;4.18;1.40;;;;;;;16.76;43.24;101188.88;4880146;29;20062;-74
2021/09/29 00:41:51;;;;;;;4.22;1.67;;;;;;;16.82;43.12;101186.69;4880078;29;20029;-75
2021/09/29 00:44:17;;;;;;;3.28;1.67;;;;;;;16.88;43.07;101201.88;4880064;29;20025;-79
2021/09/29 00:46:43;;;;;;;6.25;1.88;;;;;;;16.80;43.13;101200.84;4880069;29;20112;-75
2021/09/29 00:49:09;;;;;;;10.27;1.85;;;;;;;16.75;43.09;101205.78;4879957;29;20104;-75
2021/09/29 00:51:36;;;;;;;3.47;1.48;;;;;;;16.75;43.17;101206.59;4879855;29;20033;-74
2021/09/29 00:54:03;;;;;;;4.28;1.45;;;;;;;16.58;43.42;101209.53;4879837;29;20029;-77
2021/09/29 00:56:29;;;;;;;8.75;1.83;;;;;;;16.59;43.63;101213.91;4879792;29;20029;-78
2021/09/29 00:58:54;;;;;;;2.70;1.70;;;;;;;16.59;43.46;101225.72;4879774;29;20029;-75
2021/09/29 01:01:20;;;;;;;4.47;2.05;;;;;;;16.47;43.62;101231.22;4891791;29;20139;-74
2021/09/29 01:03:46;;;;;;;2.85;1.15;;;;;;;16.54;43.49;101230.66;4898444;29;20028;-80
2021/09/29 01:06:38;;;;;;;3.17;1.67;;;;;;;16.46;43.62;101235.13;4898311;29;20021;-75
2021/09/29 01:09:15;;;;;;;5.03;1.50;;;;;;;16.37;44.11;101237.97;4898324;29;20032;-76
2021/09/29 01:12:02;;;;;;;3.95;1.33;;;;;;;16.34;43.97;101229.59;4898291;29;20108;-75
2021/09/29 01:14:56;;;;;;;2.50;1.30;;;;;;;16.30;44.01;101242.44;4898192;29;20415;-75
2021/09/29 01:17:22;;;;;;;2.75;1.30;;;;;;;16.47;43.63;101233.97;4898180;29;20029;-76
2021/09/29 01:20:07;;;;;;;4.05;2.20;;;;;;;16.52;43.60;101239.28;4898172;29;20107;-75
2021/09/29 01:22:41;;;;;;;2.63;1.40;;;;;;;16.48;43.40;101249.41;4898099;29;20029;-75
2021/09/29 01:25:22;;;;;;;3.42;1.50;;;;;;;16.64;43.03;101244.03;4898134;29;20392;-79
2021/09/29 01:27:50;;;;;;;4.07;1.45;;;;;;;16.69;42.69;101254.84;4898098;29;20056;-74
2021/09/29 01:30:16;;;;;;;3.85;1.08;;;;;;;16.77;42.68;101253.94;4897862;29;20044;-79
2021/09/29 01:32:42;;;;;;;3.58;1.30;;;;;;;16.72;42.84;101251.44;4897828;29;20032;-75
2021/09/29 01:35:08;;;;;;;3.97;1.20;;;;;;;16.48;43.38;101260.44;4897752;29;20480;-76
2021/09/29 01:37:34;;;;;;;2.88;1.58;;;;;;;16.46;43.24;101262.69;4897811;29;20029;-78
2021/09/29 01:40:00;;;;;;;2.50;1.20;;;;;;;16.61;42.92;101267.56;4897768;29;20039;-78
2021/09/29 01:42:26;;;;;;;4.05;1.23;;;;;;;16.52;43.11;101275.13;4897736;29;20066;-75
2021/09/29 01:44:52;;;;;;;4.10;1.35;;;;;;;16.31;43.64;101271.59;4897704;29;20111;-75
2021/09/29 01:47:19;;;;;;;5.43;1.55;;;;;;;16.19;44.13;101268.81;4897188;29;20119;-75
2021/09/29 01:49:48;;;;;;;4.00;1.10;;;;;;;16.24;43.89;101280.44;4897381;29;20089;-74
2021/09/29 01:52:20;;;;;;;1.90;1.13;;;;;;;15.99;44.56;101282.25;4897610;29;20028;-75
2021/09/29 01:54:47;;;;;;;3.83;2.22;;;;;;;16.21;43.91;101289.38;4897457;29;20041;-75
2021/09/29 01:57:14;;;;;;;2.03;1.15;;;;;;;16.17;43.98;101287.63;4897524;29;20420;-75
2021/09/29 01:59:42;;;;;;;3.15;1.27;;;;;;;15.82;44.84;101294.22;4897538;29;20025;-75
2021/09/29 02:02:08;;;;;;;3.33;1.20;;;;;;;15.82;44.89;101294.22;4897361;29;20424;-79
2021/09/29 02:04:33;;;;;;;3.67;1.13;;;;;;;15.78;44.97;101286.97;4897509;29;20024;-75
2021/09/29 02:06:59;;;;;;;4.32;1.40;;;;;;;15.73;44.90;101290.72;4897518;29;20039;-78
2021/09/29 02:09:27;;;;;;;4.47;1.00;;;;;;;15.93;44.43;101291.06;4897367;29;20060;-75
2021/09/29 02:11:54;;;;;;;4.90;2.00;;;;;;;16.11;43.79;101289.00;4897460;29;20025;-74
2021/09/29 02:14:22;;;;;;;5.85;1.55;;;;;;;16.06;44.18;101293.56;4897302;29;20029;-75
2021/09/29 02:16:49;;;;;;;4.70;1.08;;;;;;;16.05;44.07;101304.94;4897508;29;20036;-76
2021/09/29 02:19:15;;;;;;;5.97;1.23;;;;;;;15.72;44.99;101297.38;4897386;29;20057;-80
2021/09/29 02:21:41;;;;;;;3.95;1.10;;;;;;;15.92;44.46;101298.53;4897339;29;20472;-75
2021/09/29 02:24:08;;;;;;;5.35;1.52;;;;;;;16.07;43.98;101305.38;4897285;29;20025;-75
2021/09/29 02:26:35;;;;;;;2.83;1.23;;;;;;;16.04;43.83;101303.31;4897250;29;20032;-75
2021/09/29 02:29:01;;;;;;;4.13;1.33;;;;;;;15.94;44.09;101306.44;4897236;29;20043;-75
2021/09/29 02:31:27;;;;;;;4.32;1.20;;;;;;;15.92;44.18;101319.78;4897261;29;20024;-75
2021/09/29 02:33:53;;;;;;;4.38;1.15;;;;;;;15.88;44.38;101327.91;4897105;29;20071;-76
2021/09/29 02:36:19;;;;;;;4.05;1.08;;;;;;;15.95;44.32;101336.47;4897223;29;20484;-77
2021/09/29 02:38:45;;;;;;;4.38;1.83;;;;;;;16.04;43.74;101334.44;4897178;29;20028;-75
2021/09/29 02:41:12;;;;;;;6.13;1.50;;;;;;;15.81;44.64;101335.91;4897163;29;20395;-76
2021/09/29 02:43:37;;;;;;;5.88;2.22;;;;;;;15.90;44.08;101336.66;4897083;29;20033;-75
2021/09/29 02:46:04;;;;;;;1.83;1.10;;;;;;;16.08;43.63;101340.88;4897096;29;20040;-76
2021/09/29 02:48:29;;;;;;;3.15;1.00;;;;;;;16.16;43.45;101335.63;4897157;29;20416;-79
2021/09/29 02:50:55;;;;;;;4.45;1.45;;;;;;;16.18;43.41;101344.41;4897196;29;20029;-76
2021/09/29 02:53:21;;;;;;;4.18;1.17;;;;;;;15.99;44.09;101342.91;4897011;29;20037;-75
2021/09/29 02:55:46;;;;;;;6.32;1.33;;;;;;;15.76;44.37;101341.59;4897044;29;20039;-76
2021/09/29 02:58:12;;;;;;;1.65;1.20;;;;;;;15.83;43.99;101347.38;4897045;29;20035;-75
2021/09/29 03:00:38;;;;;;;3.55;1.23;;;;;;;15.84;44.35;101345.44;4899749;29;20078;-75
2021/09/29 03:03:03;;;;;;;6.28;1.30;;;;;;;15.97;43.75;101356.22;4900579;29;20075;-74
2021/09/29 03:05:29;;;;;;;3.15;1.40;;;;;;;15.80;44.25;101359.09;4900479;29;20032;-79
2021/09/29 03:07:55;;;;;;;1.52;1.10;;;;;;;15.82;44.20;101371.38;4900499;29;20472;-74
2021/09/29 03:10:20;;;;;;;6.32;1.27;;;;;;;15.73;44.29;101375.34;4900416;29;20248;-75
2021/09/29 03:12:46;;;;;;;9.55;3.17;;;;;;;15.91;43.93;101374.09;4900415;29;20048;-75
2021/09/29 03:15:14;;;;;;;4.35;1.00;;;;;;;15.84;44.07;101379.31;4900327;29;20036;-80
2021/09/29 03:17:40;;;;;;;3.42;1.33;;;;;;;15.87;43.95;101375.91;4900337;29;20032;-75
2021/09/29 03:20:06;;;;;;;2.97;1.33;;;;;;;15.88;44.21;101384.97;4900273;29;20484;-75
2021/09/29 03:22:32;;;;;;;4.97;1.33;;;;;;;15.77;44.39;101384.53;4900185;29;20032;-75
2021/09/29 03:24:58;;;;;;;2.92;1.08;;;;;;;15.76;44.47;101400.25;4900176;29;20097;-75
2021/09/29 03:27:24;;;;;;;3.85;1.70;;;;;;;15.72;44.58;101415.06;4900148;29;20032;-77
2021/09/29 03:29:50;;;;;;;4.25;1.60;;;;;;;15.86;44.10;101415.59;4900141;29;20036;-76
2021/09/29 03:32:16;;;;;;;5.70;1.13;;;;;;;15.78;44.25;101419.22;4900003;29;20067;-75
2021/09/29 03:34:41;;;;;;;6.55;1.58;;;;;;;15.69;44.29;101419.25;4899885;29;20045;-75
2021/09/29 03:37:07;;;;;;;5.07;1.45;;;;;;;15.82;43.89;101425.69;4899961;29;20032;-75
2021/09/29 03:39:33;;;;;;;6.82;1.65;;;;;;;15.87;43.84;101424.66;4899929;29;20036;-76
2021/09/29 03:41:58;;;;;;;7.38;1.42;;;;;;;15.72;44.42;101428.81;4899817;29;20040;-77
2021/09/29 03:44:24;;;;;;;6.35;1.40;;;;;;;15.84;43.99;101441.88;4899816;29;20443;-75
2021/09/29 03:46:49;;;;;;;6.93;1.30;;;;;;;15.80;44.17;101447.25;4899801;29;20024;-75
2021/09/29 03:49:15;;;;;;;3.92;1.13;;;;;;;15.78;44.23;101446.75;4899774;29;20506;-78
2021/09/29 03:51:40;;;;;;;2.70;0.80;;;;;;;15.84;43.80;101450.97;4899702;29;20033;-79
2021/09/29 03:54:06;;;;;;;3.95;0.90;;;;;;;15.91;43.72;101442.97;4899835;29;20032;-75
2021/09/29 03:56:32;;;;;;;3.60;1.30;;;;;;;15.82;43.87;101458.75;4899657;29;20060;-75
2021/09/29 03:58:57;;;;;;;2.97;1.02;;;;;;;15.97;43.71;101455.44;4899561;29;20032;-75
2021/09/29 04:01:23;;;;;;;4.10;1.27;;;;;;;15.93;43.57;101457.22;4899333;29;20045;-75
2021/09/29 04:03:49;;;;;;;4.65;1.27;;;;;;;15.78;44.17;101466.84;4899445;29;20036;-76
2021/09/29 04:06:14;;;;;;;3.13;1.52;;;;;;;16.06;43.41;101464.47;4899447;29;20111;-74
2021/09/29 04:08:40;;;;;;;4.57;1.08;;;;;;;15.97;43.65;101460.16;4899352;29;20039;-76
2021/09/29 04:11:08;;;;;;;8.70;1.35;;;;;;;15.95;43.74;101465.19;4898539;29;20107;-75
2021/09/29 04:13:34;;;;;;;6.72;1.25;;;;;;;16.11;43.14;101476.47;4899275;29;20025;-75
2021/09/29 04:16:00;;;;;;;5.45;1.25;;;;;;;15.97;43.44;101473.94;4899307;29;20037;-78
2021/09/29 04:18:26;;;;;;;4.22;1.60;;;;;;;16.00;43.40;101468.53;4899205;29;20028;-75
2021/09/29 04:20:52;;;;;;;4.90;1.30;;;;;;;16.00;43.56;101468.53;4899298;29;20044;-76
2021/09/29 04:23:18;;;;;;;4.05;1.10;;;;;;;16.07;43.24;101474.34;4899103;29;20032;-75
2021/09/29 04:25:43;;;;;;;2.35;0.95;;;;;;;15.99;43.61;101482.66;4899087;29;20059;-75
2021/09/29 04:28:09;;;;;;;9.27;1.80;;;;;;;15.84;43.84;101489.53;4899085;29;20040;-76
2021/09/29 04:30:35;;;;;;;2.78;1.10;;;;;;;15.86;43.64;101495.53;4898956;29;20050;-78
2021/09/29 04:33:02;;;;;;;4.72;1.40;;;;;;;15.90;43.70;101501.19;4899010;29;20448;-76
2021/09/29 04:35:28;;;;;;;12.25;1.60;;;;;;;15.90;43.69;101504.75;4898791;29;20064;-76
2021/09/29 04:37:54;;;;;;;4.13;1.25;;;;;;;16.04;43.15;101508.09;4898866;29;20032;-75
2021/09/29 04:40:19;;;;;;;11.32;2.75;;;;;;;15.90;43.56;101512.22;4898855;29;20036;-75
2021/09/29 04:42:45;;;;;;;6.90;1.13;;;;;;;15.79;43.88;101523.59;4898729;29;20040;-75
2021/09/29 04:45:11;;;;;;;2.88;0.80;;;;;;;15.98;43.29;101527.91;4898735;29;20041;-79
2021/09/29 04:47:36;;;;;;;3.45;1.05;;;;;;;15.91;43.39;101530.38;4898656;29;20032;-76
2021/09/29 04:50:04;;;;;;;6.60;1.65;;;;;;;15.89;43.48;101541.72;4898641;29;20107;-75
2021/09/29 04:52:29;;;;;;;2.65;1.13;;;;;;;15.83;43.74;101554.06;4898632;29;20100;-79
2021/09/29 04:54:55;;;;;;;4.97;2.22;;;;;;;15.86;43.51;101549.81;4898467;29;20032;-79
2021/09/29 04:57:21;;;;;;;7.57;1.27;;;;;;;15.92;43.19;101556.78;4898603;29;20044;-76
2021/09/29 04:59:47;;;;;;;5.13;1.58;;;;;;;15.78;43.56;101557.78;4897610;29;20037;-76
2021/09/29 05:02:14;;;;;;;4.63;1.33;;;;;;;15.95;43.15;101556.94;4903465;29;20502;-75
2021/09/29 05:04:39;;;;;;;5.38;1.60;;;;;;;15.92;43.24;101560.34;4898267;29;20028;-75
2021/09/29 05:07:06;;;;;;;3.63;1.40;;;;;;;15.92;43.19;101557.59;4898342;29;20040;-76
2021/09/29 05:09:32;;;;;;;6.03;1.17;;;;;;;16.10;42.65;101566.63;4898349;29;20574;-76
2021/09/29 05:12:12;;;;;;;3.85;1.33;;;;;;;16.09;42.83;101567.75;4897874;29;20032;-79
2021/09/29 05:14:38;;;;;;;8.82;1.90;;;;;;;15.98;42.88;101567.31;4898227;29;20036;-75
2021/09/29 05:17:03;;;;;;;3.88;1.20;;;;;;;15.75;43.50;101574.19;4898190;29;20444;-75
2021/09/29 05:19:29;;;;;;;4.95;1.45;;;;;;;15.95;42.87;101579.00;4898226;29;20036;-78
2021/09/29 05:21:54;;;;;;;8.23;1.52;;;;;;;15.68;43.58;101591.22;4898033;29;20472;-75
2021/09/29 05:24:20;;;;;;;5.07;1.27;;;;;;;15.81;43.05;101603.19;4898073;29;20119;-74
2021/09/29 05:26:46;;;;;;;12.23;3.85;;;;;;;15.75;43.22;101607.25;4897978;29;20065;-74
2021/09/29 05:29:12;;;;;;;3.65;1.02;;;;;;;15.71;43.37;101601.56;4897967;29;20060;-76
2021/09/29 05:31:38;;;;;;;3.35;0.90;;;;;;;15.76;43.14;101606.09;4897997;29;20039;-74
2021/09/29 05:34:03;;;;;;;3.10;1.15;;;;;;;15.68;43.39;101613.25;4897871;29;20115;-74
2021/09/29 05:36:29;;;;;;;5.40;1.00;;;;;;;15.62;43.72;101628.31;4897821;29;20033;-78
2021/09/29 05:38:55;;;;;;;5.28;1.10;;;;;;;15.58;43.64;101627.34;4897939;29;20037;-74
2021/09/29 05:41:21;;;;;;;6.07;1.23;;;;;;;15.74;43.28;101631.22;4897760;29;20395;-74
2021/09/29 05:43:46;;;;;;;2.35;1.05;;;;;;;15.73;43.10;101628.81;4897798;29;20032;-76
2021/09/29 05:46:12;;;;;;;12.00;2.03;;;;;;;15.71;43.02;101640.13;4897591;29;20034;-75
2021/09/29 05:48:38;;;;;;;7.20;1.90;;;;;;;15.64;43.21;101641.75;4897681;29;20454;-74
2021/09/29 05:51:04;;;;;;;6.63;1.80;;;;;;;15.67;43.21;101654.91;4897573;29;20032;-74
2021/09/29 05:53:29;;;;;;;4.00;1.27;;;;;;;15.55;43.48;101653.56;4897591;29;20620;-78
2021/09/29 05:55:55;;;;;;;3.00;0.90;;;;;;;15.52;43.63;101651.47;4897324;29;20064;-77
2021/09/29 05:58:20;;;;;;;4.65;1.00;;;;;;;15.36;43.78;101658.59;4897667;29;20029;-75
2021/09/29 06:00:46;;;;;;;2.15;0.70;;;;;;;15.37;43.87;101649.19;4897368;29;20104;-75
2021/09/29 06:03:12;;;;;;;4.15;0.85;;;;;;;15.71;43.07;101655.84;4897468;29;20029;-76
2021/09/29 06:05:37;;;;;;;2.55;1.17;;;;;;;15.78;43.05;101656.19;4897539;29;20037;-75
2021/09/29 06:08:03;;;;;;;6.05;1.27;;;;;;;15.71;43.10;101661.38;4897459;29;20035;-76
2021/09/29 06:10:29;;;;;;;6.10;1.50;;;;;;;15.67;43.17;101685.22;4897462;29;20069;-77
2021/09/29 06:12:55;;;;;;;6.95;1.05;;;;;;;15.71;42.94;101686.97;4897441;29;20536;-75
2021/09/29 06:15:28;;;;;;;6.05;1.23;;;;;;;15.61;43.23;101691.97;4897383;29;20056;-76
2021/09/29 06:17:57;;;;;;;3.28;0.90;;;;;;;15.67;42.91;101694.28;4897439;29;20036;-75
2021/09/29 06:20:23;;;;;;;8.13;1.17;;;;;;;15.68;43.08;101701.41;4897474;29;20087;-76
2021/09/29 06:22:49;;;;;;;5.47;1.30;;;;;;;15.76;42.92;101700.59;4897349;29;20033;-75
2021/09/29 06:25:16;;;;;;;5.20;1.55;;;;;;;15.77;42.93;101704.16;4897340;29;20032;-75
2021/09/29 06:27:43;;;;;;;2.95;0.93;;;;;;;15.80;42.73;101709.03;4897324;29;20052;-76
2021/09/29 06:30:09;;;;;;;6.95;1.05;;;;;;;15.47;43.59;101720.47;4897288;29;20028;-74
2021/09/29 06:32:35;;;;;;;5.43;0.90;;;;;;;15.63;43.30;101715.34;4897259;29;20107;-78
2021/09/29 06:35:00;;;;;;;3.50;1.23;;;;;;;15.81;42.71;101716.97;4899404;29;20312;-75
2021/09/29 06:37:26;;;;;;;7.75;1.60;;;;;;;15.66;43.18;101722.97;4901009;29;20509;-74
2021/09/29 06:39:51;;;;;;;1.65;0.80;;;;;;;15.77;42.89;101728.97;4900972;29;20032;-76
2021/09/29 06:42:17;;;;;;;3.20;1.02;;;;;;;15.92;42.35;101738.69;4901004;29;20041;-74
2021/09/29 06:44:42;;;;;;;7.38;1.95;;;;;;;15.96;42.49;101734.97;4900914;29;20032;-75
2021/09/29 06:47:08;;;;;;;6.63;1.60;;;;;;;15.93;42.61;101734.78;4900984;29;20035;-74
2021/09/29 06:49:34;;;;;;;11.02;1.67;;;;;;;15.99;42.58;101742.56;4900734;29;20029;-75
2021/09/29 06:51:59;;;;;;;7.60;1.42;;;;;;;15.95;42.73;101752.66;4900814;29;20027;-73
2021/09/29 06:54:25;;;;;;;7.75;2.05;;;;;;;16.14;42.17;101745.97;4900616;29;20044;-74
2021/09/29 06:56:51;;;;;;;4.82;1.08;;;;;;;16.06;42.46;101764.16;4900636;29;20115;-74
2021/09/29 06:59:16;;;;;;;7.47;1.45;;;;;;;16.17;42.26;101764.59;4900485;29;20545;-74
2021/09/29 07:01:42;;;;;;;7.93;1.27;;;;;;;16.27;42.01;101775.31;4900289;29;20132;-74
2021/09/29 07:04:07;;;;;;;9.52;1.85;;;;;;;16.08;42.53;101783.91;4900587;29;20035;-75
2021/09/29 07:06:33;;;;;;;13.57;1.98;;;;;;;15.95;43.03;101790.44;4900691;29;20152;-74
2021/09/29 07:08:58;;;;;;;9.23;1.33;;;;;;;16.25;42.46;101794.97;4900402;29;20035;-75
2021/09/29 07:11:24;;;;;;;4.40;1.60;;;;;;;16.05;42.93;101796.41;4900408;29;20056;-82
2021/09/29 07:13:49;;;;;;;5.85;1.30;;;;;;;16.36;42.27;101793.47;4918052;29;20169;-78
2021/09/29 07:16:18;;;;;;;10.38;2.50;;;;;;;16.34;42.46;101800.47;4937941;29;20039;-77
2021/09/29 07:18:44;;;;;;;11.90;1.30;;;;;;;16.49;42.14;101799.16;4938124;29;20051;-77
2021/09/29 07:21:10;;;;;;;6.20;1.30;;;;;;;16.57;41.83;101790.03;4938166;29;20030;-75
2021/09/29 07:23:37;;;;;;;10.77;2.33;;;;;;;16.49;42.40;101801.91;4921151;29;20047;-75
2021/09/29 07:26:02;;;;;;;14.88;2.00;;;;;;;16.63;41.91;101813.56;4937579;29;20372;-75
2021/09/29 07:28:28;;;;;;;8.68;1.60;;;;;;;16.85;41.77;101818.06;4936517;29;20119;-75
2021/09/29 07:30:53;;;;;;;4.72;1.30;;;;;;;16.79;41.81;101811.13;4936820;29;20067;-75
2021/09/29 07:33:19;;;;;;;13.50;1.90;;;;;;;16.88;41.94;101817.41;4936485;29;20028;-75
2021/09/29 07:35:45;;;;;;;8.23;1.70;;;;;;;16.98;41.54;101824.53;4935931;29;20123;-76
2021/09/29 07:38:11;;;;;;;7.90;1.48;;;;;;;17.09;41.55;101826.59;4935845;29;20031;-75
2021/09/29 07:40:37;;;;;;;17.45;2.63;;;;;;;17.08;41.78;101819.47;4935996;29;20079;-75
2021/09/29 07:43:03;;;;;;;8.75;2.58;;;;;;;17.01;41.49;101829.41;4935591;29;20058;-75
2021/09/29 07:45:29;;;;;;;9.45;2.03;;;;;;;17.13;41.39;101835.84;4934727;29;20063;-76
2021/09/29 07:47:55;;;;;;;8.15;1.73;;;;;;;16.85;42.16;101831.88;4936273;29;20040;-76
2021/09/29 07:50:22;;;;;;;13.40;2.75;;;;;;;17.15;41.47;101847.38;4937163;29;20047;-74
2021/09/29 07:52:49;;;;;;;6.13;1.50;;;;;;;17.12;41.60;101847.22;4937561;29;20036;-74
2021/09/29 07:55:15;;;;;;;7.47;1.85;;;;;;;17.26;41.62;101849.78;4937179;29;20036;-76
2021/09/29 07:57:43;;;;;;;14.13;2.65;;;;;;;17.13;41.70;101854.34;4937438;29;20119;-75
2021/09/29 08:00:10;;;;;;;13.50;1.60;;;;;;;17.32;41.63;101870.56;4930718;29;20036;-76
2021/09/29 08:02:36;;;;;;;17.50;3.75;;;;;;;17.33;41.57;101877.69;4894781;29;20025;-75
2021/09/29 08:05:03;;;;;;;10.20;2.58;;;;;;;17.26;41.86;101885.69;4925793;29;20074;-75
2021/09/29 08:07:29;;;;;;;13.82;3.05;;;;;;;17.61;41.22;101883.59;4927365;29;20039;-77
2021/09/29 08:09:55;;;;;;;7.07;1.50;;;;;;;17.53;41.53;101876.13;4926980;29;20020;-75
2021/09/29 08:12:21;;;;;;;7.82;1.40;;;;;;;17.61;41.25;101870.56;4925801;29;20036;-77
2021/09/29 08:14:46;;;;;;;8.55;1.92;;;;;;;17.85;40.77;101880.22;4927314;29;20504;-75
2021/09/29 08:17:12;;;;;;;5.50;1.70;;;;;;;17.70;41.34;101887.94;4926668;29;20538;-76
2021/09/29 08:19:38;;;;;;;6.40;1.80;;;;;;;17.81;41.14;101891.13;4926125;29;20020;-76
2021/09/29 08:22:08;;;;;;;6.90;1.67;;;;;;;17.84;41.04;101895.19;4927460;29;20024;-75
2021/09/29 08:25:02;;;;;;;6.47;2.08;;;;;;;18.01;40.59;101897.84;4926750;29;20069;-76
2021/09/29 08:35:13;;;;;;;5.05;1.58;;;;;;;18.19;40.45;101906.81;4927208;29;20038;-76
2021/09/29 08:37:48;;;;;;;6.38;1.38;;;;;;;18.21;40.53;101910.06;4910102;29;20024;-79
2021/09/29 08:40:24;;;;;;;8.43;1.88;;;;;;;18.13;40.70;101913.69;4924775;29;20024;-76
2021/09/29 08:53:34;;;;;;;7.10;1.77;;;;;;;18.70;39.56;101935.28;4925005;29;20071;-76
2021/09/29 09:15:07;;;;;;;10.30;1.95;;;;;;;19.52;38.23;101930.66;4925124;29;20038;-79
2021/09/29 09:17:37;;;;;;;7.05;1.33;;;;;;;19.64;37.73;101935.41;4922561;29;20020;-80
2021/09/29 09:20:11;;;;;;;9.13;2.13;;;;;;;19.81;37.71;101943.53;4909870;29;20016;-79
2021/09/29 09:22:37;;;;;;;5.10;1.92;;;;;;;19.34;38.58;101943.91;4909086;29;20087;-82
2021/09/29 09:25:03;;;;;;;6.40;1.60;;;;;;;19.76;37.49;101957.63;4927253;29;20024;-77
2021/09/29 09:27:47;;;;;;;5.57;1.50;;;;;;;19.68;37.64;101955.75;4909460;29;20023;-78
2021/09/29 09:30:27;;;;;;;12.45;2.60;;;;;;;19.58;38.00;101965.34;4905151;29;20083;-80
2021/09/29 09:32:55;;;;;;;7.10;1.98;;;;;;;19.61;37.90;101967.44;4923479;29;20031;-76
2021/09/29 09:35:22;;;;;;;5.53;1.45;;;;;;;19.88;37.40;101971.50;4924269;29;20450;-82
2021/09/29 09:37:56;;;;;;;4.47;1.38;;;;;;;19.83;37.53;101985.59;4908992;29;20047;-74
2021/09/29 09:40:25;;;;;;;8.07;2.38;;;;;;;20.09;37.18;101974.13;4926206;29;20036;-72
2021/09/29 09:42:56;;;;;;;4.78;1.75;;;;;;;20.21;36.79;101982.47;4925032;29;20364;-78
2021/09/29 09:45:41;;;;;;;5.30;1.63;;;;;;;20.17;36.84;101984.28;4924506;29;20443;-75
2021/09/29 09:48:22;;;;;;;8.45;1.60;;;;;;;20.07;37.11;101993.09;4906911;29;20032;-79
2021/09/29 09:50:48;;;;;;;9.52;1.75;;;;;;;20.00;37.40;101989.28;4923992;29;20490;-75
2021/09/29 09:53:15;;;;;;;5.60;1.27;;;;;;;20.21;36.79;101995.53;4925102;29;20028;-78
2021/09/29 09:55:41;;;;;;;10.77;1.70;;;;;;;20.47;36.77;101995.16;4921306;29;20467;-79
2021/09/29 09:58:07;;;;;;;9.63;2.20;;;;;;;20.36;36.66;101994.81;4918434;29;20394;-77
2021/09/29 10:00:34;;;;;;;13.77;2.08;;;;;;;20.55;36.36;101997.00;4924771;29;20048;-69
2021/09/29 10:03:01;;;;;;;9.95;1.85;;;;;;;20.93;36.17;101999.34;4922331;29;20047;-68
2021/09/29 10:05:28;;;;;;;6.80;1.70;;;;;;;20.53;36.46;102002.09;4925225;29;20023;-69
2021/09/29 10:07:54;;;;;;;3.88;1.85;;;;;;;20.52;36.83;102008.00;4925363;29;20107;-69
2021/09/29 10:10:50;;;;;;;6.15;1.67;;;;;;;20.73;36.26;102011.44;4923186;29;20024;-68
2021/09/29 10:27:38;;;;;;;6.05;1.85;;;;;;;21.50;34.37;102023.16;4924239;29;20039;-68
2021/09/29 10:30:13;;;;;;;5.43;1.83;;;;;;;21.52;34.49;102031.13;4921469;29;20043;-68
2021/09/29 10:32:45;;;;;;;6.50;1.50;;;;;;;21.82;34.11;102028.75;4923678;29;20460;-68
2021/09/29 10:49:23;;;;;;;7.75;2.13;;;;;;;22.00;34.00;102048.69;4925495;29;20027;-69
2021/09/29 11:28:46;;;;;;;3.67;1.17;;;;;;;22.94;30.46;102068.03;4926885;29;20487;-78
2021/09/29 11:30:48;;;;;;;6.78;2.08;;;;;;;23.15;30.68;102072.47;4917883;29;20399;-90
2021/09/29 11:33:34;;;;;;;5.22;1.40;;;;;;;22.58;30.62;102060.84;4917113;29;20104;-80
2021/09/29 12:11:54;;;;;;;7.18;1.80;;;;;;;24.08;28.69;102111.31;4924165;29;20099;-67
2021/09/29 12:14:20;;;;;;;5.88;1.90;;;;;;;23.71;29.17;102102.66;4925800;29;20054;-68
2021/09/29 12:16:49;;;;;;;8.70;1.60;;;;;;;24.32;28.55;102096.16;4923612;29;20446;-69
2021/09/29 12:19:32;;;;;;;5.90;1.20;;;;;;;24.36;28.04;102097.06;4926328;29;20039;-68
2021/09/29 12:22:00;;;;;;;4.70;1.73;;;;;;;24.49;28.07;102100.47;4926424;29;20037;-68
2021/09/29 12:25:03;;;;;;;5.60;1.25;;;;;;;24.21;27.78;102109.94;4923166;29;20024;-68
2021/09/29 12:30:20;;;;;;;6.85;1.48;;;;;;;24.45;27.06;102107.97;4924229;29;20076;-68
2021/09/29 12:35:56;;;;;;;5.88;1.13;;;;;;;24.68;27.38;102108.72;4923831;29;20387;-68
2021/09/29 12:38:36;;;;;;;11.35;2.85;;;;;;;24.78;27.77;102107.25;4925009;29;20049;-68
2021/09/29 12:41:02;;;;;;;10.98;2.75;;;;;;;25.13;27.11;102106.97;4927182;29;20119;-70
2021/09/29 12:43:28;;;;;;;5.88;1.85;;;;;;;25.18;27.11;102117.84;4925521;29;20039;-69
2021/09/29 12:45:53;;;;;;;8.85;1.92;;;;;;;24.92;27.05;102119.44;4926035;29;20031;-68
2021/09/29 12:48:24;;;;;;;4.68;2.00;;;;;;;24.94;26.51;102104.28;4927221;29;20099;-79
2021/09/29 12:50:55;;;;;;;11.68;2.97;;;;;;;25.14;26.13;102112.19;4925018;29;20053;-77
2021/09/29 12:53:35;;;;;;;6.45;1.27;;;;;;;24.87;26.15;102122.59;4927280;29;20081;-68
2021/09/29 12:56:05;;;;;;;5.53;1.38;;;;;;;25.07;26.15;102109.28;4926528;29;20407;-70
2021/09/29 12:58:31;;;;;;;11.48;1.85;;;;;;;25.21;26.11;102113.47;4925844;29;20036;-77
2021/09/29 13:00:59;;;;;;;6.80;2.00;;;;;;;24.96;26.51;102118.69;4925034;29;20052;-68
2021/09/29 13:03:25;;;;;;;7.40;1.30;;;;;;;24.73;27.00;102118.78;4926700;29;20059;-69
2021/09/29 13:05:51;;;;;;;8.18;1.40;;;;;;;24.40;26.96;102125.03;4926375;29;20070;-68
2021/09/29 13:08:17;;;;;;;5.40;1.10;;;;;;;24.54;26.63;102125.25;4925184;29;20519;-68
2021/09/29 13:10:42;;;;;;;5.20;1.75;;;;;;;25.12;26.06;102136.94;4932034;29;20398;-69
2021/09/29 13:13:12;;;;;;;9.02;1.90;;;;;;;25.46;25.96;102140.53;4918394;29;20074;-69
2021/09/29 13:15:45;;;;;;;5.68;1.50;;;;;;;25.37;26.11;102133.63;4918539;29;20067;-69
2021/09/29 13:18:16;;;;;;;10.73;1.63;;;;;;;25.34;26.08;102137.22;4935752;29;20031;-80
2021/09/29 13:20:44;;;;;;;9.68;2.05;;;;;;;24.91;26.46;102139.41;4931483;29;20034;-70
2021/09/29 13:25:56;;;;;;;12.88;1.95;;;;;;;24.99;26.31;102129.13;4924623;29;20020;-71
2021/09/29 13:36:39;;;;;;;7.00;2.17;;;;;;;24.83;25.76;102124.50;4921577;29;20034;-69
2021/09/29 13:39:08;;;;;;;12.38;2.00;;;;;;;24.85;25.79;102121.34;4923556;29;20091;-69
2021/09/29 13:41:35;;;;;;;7.13;1.65;;;;;;;24.99;25.87;102126.31;4926337;29;20031;-69
2021/09/29 13:44:01;;;;;;;4.15;1.15;;;;;;;25.05;26.03;102127.63;4924888;29;20447;-70
2021/09/29 13:46:26;;;;;;;6.80;1.55;;;;;;;24.72;26.07;102137.53;4924450;29;20057;-68
2021/09/29 13:48:54;;;;;;;7.05;1.70;;;;;;;24.62;25.99;102140.97;4925926;29;20067;-69
2021/09/29 13:51:20;;;;;;;16.00;3.47;;;;;;;24.53;26.52;102140.41;4924893;29;20024;-68
2021/09/29 13:53:45;;;;;;;4.72;1.10;;;;;;;23.95;28.56;102151.75;4907303;29;20026;-68
2021/09/29 13:56:13;;;;;;;4.90;1.30;;;;;;;24.19;29.03;102150.63;4925845;29;20032;-68
2021/09/29 13:58:51;;;;;;;4.95;1.45;;;;;;;24.10;29.53;102156.41;4924532;29;20028;-68
2021/09/29 14:14:53;;;;;;;4.45;1.13;;;;;;;24.13;30.51;102152.91;4922007;29;20562;-67